createdAt,value
2019-02-03T00:01:32.517Z,90.03
2019-02-03T00:04:02.918Z,77.77
2019-02-03T00:06:33.824Z,81.43
2019-02-03T00:09:07.828Z,83.90
2019-02-03T00:11:38.591Z,105.80
2019-02-03T00:14:10.498Z,90.87
2019-02-03T00:16:40.989Z,87.50
2019-02-03T00:19:11.491Z,101.20
2019-02-03T00:21:41.838Z,102.13
2019-02-03T00:24:19.344Z,97.60
2019-02-03T00:26:49.705Z,100.80
2019-02-03T00:29:23.537Z,89.20
2019-02-03T00:31:53.862Z,95.73
2019-02-03T00:34:24.165Z,90.07
2019-02-03T00:36:54.477Z,97.70
2019-02-03T00:39:27.838Z,90.03
2019-02-03T00:41:58.282Z,93.60
2019-02-03T00:44:28.618Z,105.03
2019-02-03T00:46:59.265Z,106.27
2019-02-03T00:49:29.837Z,114.80
2019-02-03T00:52:00.014Z,106.60
2019-02-03T00:54:30.730Z,104.97
2019-02-03T00:57:02.450Z,121.87
2019-02-03T00:59:32.720Z,109.87
2019-02-03T01:02:03.162Z,88.00
2019-02-03T01:04:33.933Z,108.13
2019-02-03T01:07:05.466Z,104.77
2019-02-03T01:09:35.917Z,115.33
2019-02-03T01:12:07.019Z,112.77
2019-02-03T01:14:37.591Z,101.43
2019-02-03T01:17:07.743Z,102.03
2019-02-03T01:19:38.606Z,104.23
2019-02-03T01:22:09.129Z,106.03
2019-02-03T01:24:40.085Z,90.13
2019-02-03T01:27:10.807Z,90.70
2019-02-03T01:29:41.147Z,101.70
2019-02-03T01:32:12.320Z,110.00
2019-02-03T01:34:43.090Z,85.10
2019-02-03T01:37:17.510Z,85.90
2019-02-03T01:39:51.012Z,104.70
2019-02-03T01:42:21.919Z,106.23
2019-02-03T01:44:52.813Z,106.20
2019-02-03T01:47:23.241Z,98.77
2019-02-03T01:49:53.621Z,125.20
2019-02-03T01:52:24.042Z,98.97
2019-02-03T01:54:57.263Z,94.90
2019-02-03T01:57:28.278Z,98.50
2019-02-03T01:59:58.721Z,101.00
2019-02-03T02:02:29.187Z,98.97
2019-02-03T02:04:59.843Z,101.20
2019-02-03T02:07:37.899Z,104.63
2019-02-03T02:10:10.932Z,102.37
2019-02-03T02:12:42.634Z,108.57
2019-02-03T02:15:15.596Z,107.57
2019-02-03T02:17:48.490Z,108.07
2019-02-03T02:20:25.909Z,92.20
2019-02-03T02:22:57.648Z,103.13
2019-02-03T02:25:27.992Z,108.33
2019-02-03T02:27:58.317Z,97.93
2019-02-03T02:30:29.080Z,92.37
2019-02-03T02:32:59.751Z,102.63
2019-02-03T02:35:30.274Z,88.20
2019-02-03T02:38:06.452Z,101.23
2019-02-03T02:40:32.759Z,108.23
2019-02-03T02:43:04.147Z,91.30
2019-02-03T02:45:34.955Z,80.60
2019-02-03T02:48:05.293Z,93.30
2019-02-03T02:50:38.546Z,94.07
2019-02-03T02:53:08.966Z,89.07
2019-02-03T02:55:42.429Z,101.60
2019-02-03T02:58:12.942Z,90.83
2019-02-03T03:00:43.119Z,84.37
2019-02-03T03:03:13.734Z,88.43
2019-02-03T03:05:44.296Z,77.90
2019-02-03T03:08:19.119Z,75.10
2019-02-03T03:10:47.199Z,89.80
2019-02-03T03:13:17.965Z,87.87
2019-02-03T03:15:48.687Z,80.70
2019-02-03T03:18:19.785Z,82.27
2019-02-03T03:20:50.154Z,86.80
2019-02-03T03:23:20.503Z,94.10
2019-02-03T03:25:51.567Z,91.50
2019-02-03T03:28:24.733Z,80.43
2019-02-03T03:30:55.213Z,87.87
2019-02-03T03:33:25.744Z,82.40
2019-02-03T03:35:56.040Z,83.00
2019-02-03T03:38:32.290Z,76.17
2019-02-03T03:41:02.528Z,76.17
2019-02-03T03:43:34.835Z,79.30
2019-02-03T03:46:06.724Z,80.80
2019-02-03T03:48:37.220Z,86.87
2019-02-03T03:51:07.625Z,78.93
2019-02-03T03:53:41.590Z,67.17
2019-02-03T03:56:12.959Z,72.53
2019-02-03T03:58:44.505Z,79.57
2019-02-03T04:01:15.378Z,86.40
2019-02-03T04:03:46.006Z,83.70
2019-02-03T04:06:16.675Z,74.90
2019-02-03T04:08:47.332Z,77.83
2019-02-03T04:11:17.861Z,72.73
2019-02-03T04:13:48.558Z,71.87
2019-02-03T04:16:19.543Z,76.43
2019-02-03T04:18:50.856Z,75.10
2019-02-03T04:21:21.097Z,78.80
2019-02-03T04:23:51.655Z,75.77
2019-02-03T04:26:22.377Z,63.90
2019-02-03T04:28:52.950Z,62.20
2019-02-03T04:31:23.708Z,71.20
2019-02-03T04:33:54.334Z,66.30
2019-02-03T04:36:24.709Z,73.33
2019-02-03T04:38:58.155Z,64.90
2019-02-03T04:41:27.290Z,68.23
2019-02-03T04:43:58.321Z,68.80
2019-02-03T04:46:28.906Z,64.17
2019-02-03T04:48:59.873Z,61.77
2019-02-03T04:51:30.533Z,71.63
2019-02-03T04:54:00.721Z,65.50
2019-02-03T04:56:31.300Z,69.13
2019-02-03T04:59:01.977Z,66.60
2019-02-03T05:01:32.593Z,52.93
2019-02-03T05:04:03.014Z,60.13
2019-02-03T05:06:33.369Z,55.50
2019-02-03T05:09:11.143Z,75.60
2019-02-03T05:11:39.725Z,55.57
2019-02-03T05:14:12.218Z,60.17
2019-02-03T05:16:43.254Z,57.07
2019-02-03T05:19:13.832Z,54.20
2019-02-03T05:21:44.316Z,68.23
2019-02-03T05:24:14.853Z,59.73
2019-02-03T05:26:45.322Z,66.43
2019-02-03T05:29:15.578Z,63.00
2019-02-03T05:31:46.739Z,66.90
2019-02-03T05:34:17.085Z,62.80
2019-02-03T05:36:47.691Z,61.53
2019-02-03T05:39:25.255Z,66.47
2019-02-03T05:41:50.173Z,54.17
2019-02-03T05:44:20.430Z,67.13
2019-02-03T05:46:51.104Z,66.47
2019-02-03T05:49:21.546Z,64.10
2019-02-03T05:51:51.856Z,65.40
2019-02-03T05:54:22.991Z,74.07
2019-02-03T05:57:02.620Z,59.83
2019-02-03T05:59:33.282Z,62.67
2019-02-03T06:02:04.285Z,66.07
2019-02-03T06:04:34.716Z,77.30
2019-02-03T06:07:05.510Z,57.43
2019-02-03T06:09:37.102Z,54.63
2019-02-03T06:12:09.236Z,60.13
2019-02-03T06:14:39.995Z,59.60
2019-02-03T06:17:10.960Z,57.77
2019-02-03T06:19:41.361Z,58.30
2019-02-03T06:22:11.758Z,56.03
2019-02-03T06:24:41.876Z,56.60
2019-02-03T06:27:13.000Z,51.47
2019-02-03T06:29:43.302Z,55.40
2019-02-03T06:32:13.555Z,52.30
2019-02-03T06:34:44.159Z,54.33
2019-02-03T06:37:16.174Z,50.80
2019-02-03T06:39:48.652Z,50.43
2019-02-03T06:42:19.312Z,47.20
2019-02-03T06:44:49.612Z,56.90
2019-02-03T06:47:27.376Z,49.40
2019-02-03T06:49:58.209Z,49.13
2019-02-03T06:52:28.710Z,50.20
2019-02-03T06:54:59.348Z,46.30
2019-02-03T06:57:30.003Z,50.53
2019-02-03T07:00:00.590Z,48.03
2019-02-03T07:02:31.406Z,48.90
2019-02-03T07:05:01.776Z,44.40
2019-02-03T07:07:32.145Z,45.60
2019-02-03T07:10:03.712Z,50.67
2019-02-03T07:12:33.949Z,46.63
2019-02-03T07:15:05.084Z,47.33
2019-02-03T07:17:36.135Z,44.80
2019-02-03T07:20:07.331Z,44.33
2019-02-03T07:22:40.740Z,42.47
2019-02-03T07:25:11.770Z,39.87
2019-02-03T07:27:42.134Z,40.37
2019-02-03T07:30:14.922Z,36.67
2019-02-03T07:32:46.601Z,42.10
2019-02-03T07:35:17.039Z,35.23
2019-02-03T07:37:47.763Z,40.00
2019-02-03T07:40:18.532Z,38.33
2019-02-03T07:42:48.985Z,38.53
2019-02-03T07:45:19.476Z,36.00
2019-02-03T07:47:49.878Z,35.10
2019-02-03T07:50:20.350Z,29.73
2019-02-03T07:52:51.266Z,33.90
2019-02-03T07:55:21.713Z,27.00
2019-02-03T07:57:52.411Z,29.03
2019-02-03T08:00:23.369Z,26.97
2019-02-03T08:02:55.220Z,35.67
2019-02-03T08:05:26.101Z,26.07
2019-02-03T08:07:56.772Z,39.10
2019-02-03T08:10:29.542Z,32.07
2019-02-03T08:13:00.460Z,28.33
2019-02-03T08:15:33.853Z,24.80
2019-02-03T08:18:05.983Z,29.80
2019-02-03T08:20:43.745Z,22.30
2019-02-03T08:23:16.607Z,29.43
2019-02-03T08:25:48.189Z,23.30
2019-02-03T08:28:20.136Z,27.03
2019-02-03T08:30:50.825Z,23.63
2019-02-03T08:33:21.133Z,29.03
2019-02-03T08:35:55.148Z,28.20
2019-02-03T08:38:27.341Z,30.00
2019-02-03T08:40:59.968Z,26.57
2019-02-03T08:43:31.697Z,28.97
2019-02-03T08:46:03.640Z,37.67
2019-02-03T08:48:37.377Z,35.97
2019-02-03T08:51:09.909Z,35.83
2019-02-03T08:53:41.291Z,32.30
2019-02-03T08:56:15.594Z,34.90
2019-02-03T08:58:49.979Z,27.70
2019-02-03T09:01:24.220Z,31.07
2019-02-03T09:03:57.949Z,28.00
2019-02-03T09:06:29.498Z,20.90
2019-02-03T09:09:04.308Z,24.60
2019-02-03T09:11:40.136Z,22.40
2019-02-03T09:14:10.858Z,24.30
2019-02-03T09:16:41.770Z,20.73
2019-02-03T09:19:14.731Z,24.03
2019-02-03T09:21:46.956Z,25.20
2019-02-03T09:24:20.565Z,19.50
2019-02-03T09:26:55.052Z,16.60
2019-02-03T09:29:26.437Z,20.00
2019-02-03T09:31:57.691Z,17.90
2019-02-03T09:34:28.439Z,20.67
2019-02-03T09:37:01.512Z,18.07
2019-02-03T09:39:31.992Z,14.53
2019-02-03T09:42:02.913Z,14.60
2019-02-03T09:44:33.197Z,16.00
2019-02-03T09:47:03.753Z,15.03
2019-02-03T09:49:34.410Z,16.43
2019-02-03T09:52:06.940Z,14.30
2019-02-03T09:54:37.394Z,14.87
2019-02-03T09:57:19.139Z,17.07
2019-02-03T09:59:51.441Z,25.80
2019-02-03T10:02:21.670Z,23.83
2019-02-03T10:04:52.727Z,16.20
2019-02-03T10:07:23.234Z,12.90
2019-02-03T10:09:53.368Z,18.73
2019-02-03T10:12:26.883Z,11.63
2019-02-03T10:15:00.513Z,11.30
2019-02-03T10:17:34.275Z,9.97
2019-02-03T10:20:05.926Z,16.60
2019-02-03T10:22:37.786Z,11.47
2019-02-03T10:25:16.308Z,12.00
2019-02-03T10:27:47.036Z,10.60
2019-02-03T10:30:19.910Z,14.53
2019-02-03T10:32:50.809Z,8.70
2019-02-03T10:35:23.971Z,11.27
2019-02-03T10:37:54.922Z,12.23
2019-02-03T10:40:31.894Z,7.43
2019-02-03T10:43:03.373Z,8.27
2019-02-03T10:45:34.378Z,8.70
2019-02-03T10:48:07.766Z,7.93
2019-02-03T10:50:39.167Z,7.07
2019-02-03T10:53:11.562Z,9.87
2019-02-03T10:55:43.730Z,9.10
2019-02-03T10:58:14.021Z,15.40
2019-02-03T11:00:47.024Z,9.70
2019-02-03T11:03:17.457Z,9.20
2019-02-03T11:05:50.992Z,6.73
2019-02-03T11:08:21.441Z,7.10
2019-02-03T11:10:51.804Z,8.37
2019-02-03T11:13:22.693Z,7.67
2019-02-03T11:15:54.487Z,5.47
2019-02-03T11:18:24.847Z,9.20
2019-02-03T11:20:58.654Z,7.00
2019-02-03T11:23:33.367Z,7.97
2019-02-03T11:26:04.146Z,7.87
2019-02-03T11:28:35.286Z,9.23
2019-02-03T11:31:06.596Z,9.20
2019-02-03T11:33:40.320Z,14.63
2019-02-03T11:36:13.448Z,5.90
2019-02-03T11:38:44.270Z,9.13
2019-02-03T11:41:17.144Z,7.13
2019-02-03T11:43:47.208Z,7.17
2019-02-03T11:46:19.335Z,7.77
2019-02-03T11:48:53.574Z,7.87
2019-02-03T11:51:30.002Z,8.63
2019-02-03T11:54:02.193Z,7.60
2019-02-03T11:56:33.147Z,9.23
2019-02-03T11:59:07.925Z,7.80
2019-02-03T12:01:49.390Z,6.67
2019-02-03T12:04:24.439Z,11.13
2019-02-03T12:06:58.370Z,9.93
2019-02-03T12:09:29.647Z,7.30
2019-02-03T12:12:03.127Z,7.57
2019-02-03T12:14:36.718Z,7.40
2019-02-03T12:17:07.180Z,8.17
2019-02-03T12:19:38.755Z,8.50
2019-02-03T12:22:09.305Z,8.17
2019-02-03T12:24:41.498Z,5.27
2019-02-03T12:27:12.218Z,6.00
2019-02-03T12:29:42.517Z,5.30
2019-02-03T12:32:19.383Z,7.53
2019-02-03T12:34:49.652Z,10.23
2019-02-03T12:37:22.847Z,6.53
2019-02-03T12:39:56.255Z,10.90
2019-02-03T12:42:27.868Z,5.70
2019-02-03T12:44:58.944Z,12.00
2019-02-03T12:47:29.491Z,9.37
2019-02-03T12:50:00.427Z,11.83
2019-02-03T12:52:36.631Z,5.83
2019-02-03T12:55:08.170Z,4.80
2019-02-03T12:57:46.480Z,6.50
2019-02-03T13:00:24.292Z,6.33
2019-02-03T13:02:55.138Z,8.80
2019-02-03T13:05:26.770Z,10.60
2019-02-03T13:07:57.917Z,7.70
2019-02-03T13:10:34.149Z,8.40
2019-02-03T13:13:08.150Z,8.67
2019-02-03T13:15:42.839Z,7.97
2019-02-03T13:18:14.123Z,7.57
2019-02-03T13:20:44.921Z,10.43
2019-02-03T13:23:15.838Z,22.03
2019-02-03T13:25:46.537Z,7.50
2019-02-03T13:28:29.407Z,5.80
2019-02-03T13:30:59.988Z,8.80
2019-02-03T13:33:30.244Z,9.33
2019-02-03T13:36:02.006Z,5.60
2019-02-03T13:38:35.882Z,6.50
2019-02-03T13:41:06.924Z,4.80
2019-02-03T13:43:37.282Z,5.40
2019-02-03T13:46:14.237Z,9.53
2019-02-03T13:48:44.969Z,6.70
2019-02-03T13:51:17.850Z,14.20
2019-02-03T13:53:53.386Z,4.30
2019-02-03T13:56:31.919Z,13.40
2019-02-03T13:59:02.168Z,7.70
2019-02-03T14:01:35.350Z,4.03
2019-02-03T14:04:07.155Z,6.13
2019-02-03T14:06:37.933Z,4.13
2019-02-03T14:09:10.284Z,5.60
2019-02-03T14:11:43.320Z,7.63
2019-02-03T14:14:15.177Z,5.80
2019-02-03T14:16:47.075Z,12.30
2019-02-03T14:19:17.629Z,4.97
2019-02-03T14:21:48.373Z,6.13
2019-02-03T14:24:20.267Z,11.13
2019-02-03T14:26:51.721Z,5.43
2019-02-03T14:29:24.525Z,11.60
2019-02-03T14:31:56.196Z,4.90
2019-02-03T14:34:26.455Z,5.83
2019-02-03T14:36:57.358Z,4.43
2019-02-03T14:39:35.030Z,3.77
2019-02-03T14:42:11.846Z,6.00
2019-02-03T14:44:44.225Z,3.87
2019-02-03T14:47:21.906Z,5.80
2019-02-03T14:49:52.444Z,3.27
2019-02-03T14:52:22.692Z,3.03
2019-02-03T14:54:53.385Z,5.60
2019-02-03T14:57:23.937Z,4.03
2019-02-03T14:59:56.911Z,3.93
2019-02-03T15:02:31.011Z,6.50
2019-02-03T15:05:04.180Z,2.63
2019-02-03T15:07:42.389Z,3.07
2019-02-03T15:10:13.328Z,3.83
2019-02-03T15:12:46.517Z,5.00
2019-02-03T15:15:20.295Z,4.33
2019-02-03T15:17:53.006Z,4.30
2019-02-03T15:20:24.221Z,4.70
2019-02-03T15:22:56.532Z,4.77
2019-02-03T15:25:27.638Z,4.67
2019-02-03T15:27:58.318Z,8.30
2019-02-03T15:30:32.774Z,2.20
2019-02-03T15:33:03.552Z,3.63
2019-02-03T15:35:35.906Z,5.43
2019-02-03T15:38:09.181Z,4.27
2019-02-03T15:40:43.646Z,6.00
2019-02-03T15:43:25.438Z,4.37
2019-02-03T15:45:51.601Z,5.20
2019-02-03T15:48:23.017Z,4.53
2019-02-03T15:51:00.092Z,6.90
2019-02-03T15:53:35.186Z,3.67
2019-02-03T15:56:05.589Z,4.07
2019-02-03T15:58:36.239Z,4.97
2019-02-03T16:01:08.391Z,8.10
2019-02-03T16:03:39.376Z,4.00
2019-02-03T16:06:11.072Z,4.73
2019-02-03T16:08:41.652Z,3.20
2019-02-03T16:11:12.686Z,4.23
2019-02-03T16:13:47.368Z,6.67
2019-02-03T16:16:18.295Z,6.70
2019-02-03T16:18:48.779Z,4.27
2019-02-03T16:21:22.077Z,8.40
2019-02-03T16:23:52.585Z,3.07
2019-02-03T16:26:24.949Z,5.30
2019-02-03T16:28:54.893Z,8.43
2019-02-03T16:31:25.982Z,5.67
2019-02-03T16:34:01.518Z,3.90
2019-02-03T16:36:32.114Z,6.90
2019-02-03T16:39:06.840Z,5.47
2019-02-03T16:41:37.886Z,5.90
2019-02-03T16:44:08.347Z,8.37
2019-02-03T16:46:38.925Z,5.27
2019-02-03T16:49:11.565Z,4.57
2019-02-03T16:51:44.466Z,5.80
2019-02-03T16:54:17.994Z,5.27
2019-02-03T16:56:48.416Z,5.30
2019-02-03T16:59:18.814Z,4.23
2019-02-03T17:01:50.007Z,4.17
2019-02-03T17:04:23.710Z,6.53
2019-02-03T17:06:58.177Z,5.20
2019-02-03T17:09:29.052Z,5.73
2019-02-03T17:12:00.964Z,5.20
2019-02-03T17:14:33.655Z,5.50
2019-02-03T17:17:08.649Z,4.03
2019-02-03T17:19:40.979Z,3.70
2019-02-03T17:22:14.974Z,7.07
2019-02-03T17:24:47.955Z,5.67
2019-02-03T17:27:18.613Z,6.67
2019-02-03T17:29:48.970Z,8.33
2019-02-03T17:32:19.259Z,5.00
2019-02-03T17:34:50.327Z,7.40
2019-02-03T17:37:23.370Z,6.60
2019-02-03T17:39:54.077Z,9.03
2019-02-03T17:42:24.743Z,10.90
2019-02-03T17:44:56.044Z,8.80
2019-02-03T17:47:27.112Z,10.10
2019-02-03T17:49:58.127Z,9.40
2019-02-03T17:52:38.998Z,11.07
2019-02-03T17:55:06.687Z,8.37
2019-02-03T17:57:39.694Z,14.67
2019-02-03T18:00:36.652Z,18.20
2019-02-03T18:03:07.066Z,14.00
2019-02-03T18:05:42.670Z,13.17
2019-02-03T18:08:13.490Z,13.27
2019-02-03T18:10:43.803Z,13.20
2019-02-03T18:13:18.676Z,11.70
2019-02-03T18:15:49.085Z,9.43
2019-02-03T18:18:21.958Z,11.63
2019-02-03T18:20:52.717Z,11.10
2019-02-03T18:23:23.232Z,10.00
2019-02-03T18:25:53.901Z,9.90
2019-02-03T18:28:24.543Z,8.13
2019-02-03T18:30:55.424Z,8.70
2019-02-03T18:33:26.946Z,11.40
2019-02-03T18:35:59.216Z,9.63
2019-02-03T18:38:29.400Z,10.67
2019-02-03T18:41:00.277Z,8.40
2019-02-03T18:43:30.649Z,10.07
2019-02-03T18:46:04.652Z,10.90
2019-02-03T18:48:37.597Z,11.83
2019-02-03T18:51:10.698Z,8.83
2019-02-03T18:53:43.108Z,11.10
2019-02-03T18:56:14.202Z,9.50
2019-02-03T18:58:48.101Z,13.03
2019-02-03T19:01:20.383Z,11.00
2019-02-03T19:03:52.374Z,13.00
2019-02-03T19:06:23.773Z,8.40
2019-02-03T19:08:54.260Z,9.60
2019-02-03T19:11:28.104Z,12.17
2019-02-03T19:14:01.323Z,12.90
2019-02-03T19:16:33.891Z,11.20
2019-02-03T19:19:04.173Z,9.83
2019-02-03T19:21:34.804Z,10.07
2019-02-03T19:24:05.830Z,11.77
2019-02-03T19:26:39.214Z,10.93
2019-02-03T19:29:09.455Z,8.60
2019-02-03T19:31:46.716Z,8.93
2019-02-03T19:34:17.065Z,12.30
2019-02-03T19:36:50.745Z,8.60
2019-02-03T19:39:21.556Z,13.23
2019-02-03T19:41:51.951Z,12.03
2019-02-03T19:44:22.273Z,11.70
2019-02-03T19:47:03.046Z,13.07
2019-02-03T19:49:33.781Z,11.27
2019-02-03T19:52:04.176Z,11.73
2019-02-03T19:54:38.426Z,12.40
2019-02-03T19:57:21.087Z,12.43
2019-02-03T19:59:54.598Z,13.97
2019-02-03T20:02:24.857Z,12.93
2019-02-03T20:05:00.570Z,11.13
2019-02-03T20:07:30.969Z,14.53
2019-02-03T20:10:01.749Z,18.60
2019-02-03T20:12:33.966Z,16.93
2019-02-03T20:15:10.168Z,9.23
2019-02-03T20:17:37.532Z,11.93
2019-02-03T20:20:10.773Z,14.27
2019-02-03T20:22:41.408Z,11.63
2019-02-03T20:25:14.052Z,11.63
2019-02-03T20:27:45.155Z,12.80
2019-02-03T20:30:36.890Z,10.63
2019-02-03T20:32:55.135Z,12.43
2019-02-03T20:35:26.935Z,13.17
2019-02-03T20:37:57.654Z,11.97
2019-02-03T20:40:33.585Z,9.97
2019-02-03T20:43:05.907Z,13.13
2019-02-03T20:45:48.942Z,9.20
2019-02-03T20:48:16.444Z,9.83
2019-02-03T20:50:47.033Z,9.47
2019-02-03T20:53:20.590Z,8.80
2019-02-03T20:55:51.512Z,10.77
2019-02-03T20:58:22.196Z,9.80
2019-02-03T21:00:53.069Z,10.37
2019-02-03T21:03:23.488Z,8.70
2019-02-03T21:05:54.556Z,11.63
2019-02-03T21:08:25.091Z,12.20
2019-02-03T21:10:58.715Z,10.43
2019-02-03T21:13:29.112Z,20.03
2019-02-03T21:15:59.453Z,13.50
2019-02-03T21:18:30.099Z,14.73
2019-02-03T21:21:00.566Z,13.20
2019-02-03T21:23:38.996Z,13.87
2019-02-03T21:26:16.324Z,11.23
2019-02-03T21:28:42.782Z,13.53
2019-02-03T21:31:14.847Z,10.20
2019-02-03T21:33:45.493Z,11.00
2019-02-03T21:36:15.684Z,11.50
2019-02-03T21:38:46.501Z,10.27
2019-02-03T21:41:16.737Z,15.83
2019-02-03T21:43:47.677Z,9.20
2019-02-03T21:46:18.500Z,10.27
2019-02-03T21:48:48.657Z,10.90
2019-02-03T21:51:19.176Z,11.43
2019-02-03T21:53:50.144Z,11.47
2019-02-03T21:56:21.690Z,9.50
2019-02-03T21:58:52.137Z,14.90
2019-02-03T22:01:22.467Z,8.37
2019-02-03T22:03:53.021Z,8.63
2019-02-03T22:06:24.979Z,10.63
2019-02-03T22:08:55.593Z,8.20
2019-02-03T22:11:27.240Z,8.27
2019-02-03T22:13:58.124Z,7.27
2019-02-03T22:16:34.093Z,13.50
2019-02-03T22:19:05.980Z,8.10
2019-02-03T22:21:36.842Z,8.67
2019-02-03T22:24:13.642Z,12.13
2019-02-03T22:26:48.317Z,7.77
2019-02-03T22:29:19.125Z,7.20
2019-02-03T22:31:52.584Z,11.80
2019-02-03T22:34:23.437Z,7.77
2019-02-03T22:36:53.706Z,7.63
2019-02-03T22:39:24.298Z,9.23
2019-02-03T22:41:55.122Z,13.77
2019-02-03T22:44:25.569Z,6.70
2019-02-03T22:46:56.320Z,9.50
2019-02-03T22:49:26.763Z,9.23
2019-02-03T22:52:00.174Z,7.53
2019-02-03T22:54:32.019Z,8.47
2019-02-03T22:57:02.596Z,11.17
2019-02-03T22:59:33.265Z,9.17
2019-02-03T23:02:03.820Z,8.13
2019-02-03T23:04:36.671Z,10.23
2019-02-03T23:07:07.408Z,6.97
2019-02-03T23:09:37.745Z,9.00
2019-02-03T23:12:09.487Z,14.93
2019-02-03T23:14:42.884Z,13.50
2019-02-03T23:17:13.196Z,13.50
2019-02-03T23:19:44.089Z,13.80
2019-02-03T23:22:14.976Z,17.10
2019-02-03T23:24:45.369Z,17.17
2019-02-03T23:27:16.367Z,15.73
2019-02-03T23:29:46.825Z,12.73
2019-02-03T23:32:19.075Z,13.10
2019-02-03T23:34:49.309Z,11.57
2019-02-03T23:37:21.954Z,9.40
2019-02-03T23:39:52.575Z,11.60
2019-02-03T23:42:23.468Z,11.13
2019-02-03T23:44:53.813Z,11.60
2019-02-03T23:47:24.026Z,11.03
2019-02-03T23:49:55.841Z,9.53
2019-02-03T23:52:29.948Z,9.00
2019-02-03T23:55:00.406Z,9.70
2019-02-03T23:57:31.067Z,9.13
